createdAt,value
2018-01-29T00:01:08.214Z,2.83
2018-01-29T00:03:37.644Z,4.30
2018-01-29T00:06:07.090Z,3.27
2018-01-29T00:08:36.519Z,3.03
2018-01-29T00:11:06.061Z,3.47
2018-01-29T00:13:35.513Z,2.67
2018-01-29T00:16:04.954Z,2.70
2018-01-29T00:18:34.390Z,3.10
2018-01-29T00:21:03.842Z,3.30
2018-01-29T00:23:33.296Z,3.20
2018-01-29T00:26:02.729Z,3.33
2018-01-29T00:28:32.197Z,3.47
2018-01-29T00:31:01.805Z,4.10
2018-01-29T00:33:31.250Z,3.83
2018-01-29T00:36:00.741Z,3.40
2018-01-29T00:38:30.197Z,3.33
2018-01-29T00:40:59.662Z,3.73
2018-01-29T00:43:29.282Z,3.73
2018-01-29T00:45:58.720Z,3.57
2018-01-29T00:48:27.964Z,3.50
2018-01-29T00:50:57.401Z,4.10
2018-01-29T00:53:26.834Z,3.87
2018-01-29T00:55:56.112Z,4.37
2018-01-29T00:58:25.580Z,4.03
2018-01-29T01:00:55.201Z,3.90
2018-01-29T01:03:24.633Z,3.73
2018-01-29T01:05:54.077Z,4.07
2018-01-29T01:08:23.514Z,3.83
2018-01-29T01:10:52.953Z,3.43
2018-01-29T01:13:22.413Z,3.57
2018-01-29T01:15:51.857Z,3.87
2018-01-29T01:18:21.321Z,3.30
2018-01-29T01:20:50.767Z,3.80
2018-01-29T01:23:20.206Z,3.63
2018-01-29T01:25:49.626Z,4.57
2018-01-29T01:28:19.265Z,4.63
2018-01-29T01:30:48.777Z,3.97
2018-01-29T01:33:18.225Z,4.27
2018-01-29T01:35:47.334Z,4.37
2018-01-29T01:38:16.767Z,3.90
2018-01-29T01:40:46.210Z,3.77
2018-01-29T01:43:15.705Z,4.23
2018-01-29T01:45:45.152Z,4.10
2018-01-29T01:48:14.582Z,3.97
2018-01-29T01:50:44.022Z,3.80
2018-01-29T01:53:13.261Z,3.83
2018-01-29T01:55:42.726Z,3.40
2018-01-29T01:58:12.173Z,3.83
2018-01-29T02:00:41.616Z,3.40
2018-01-29T02:03:11.222Z,3.43
2018-01-29T02:05:40.692Z,4.37
2018-01-29T02:08:10.126Z,3.50
2018-01-29T02:10:39.557Z,3.60
2018-01-29T02:13:09.031Z,3.40
2018-01-29T02:15:38.477Z,3.03
2018-01-29T02:18:07.906Z,3.90
2018-01-29T02:20:37.368Z,3.40
2018-01-29T02:23:06.841Z,3.33
2018-01-29T02:25:36.273Z,3.30
2018-01-29T02:28:05.985Z,3.60
2018-01-29T02:30:35.565Z,3.10
2018-01-29T02:33:04.814Z,3.13
2018-01-29T02:35:34.288Z,3.43
2018-01-29T02:38:03.931Z,3.00
2018-01-29T02:40:33.407Z,3.90
2018-01-29T02:43:02.853Z,3.20
2018-01-29T02:45:32.104Z,3.40
2018-01-29T02:48:01.345Z,5.33
2018-01-29T02:50:30.613Z,3.40
2018-01-29T02:52:59.861Z,3.50
2018-01-29T02:55:29.101Z,3.67
2018-01-29T02:57:58.341Z,2.63
2018-01-29T03:00:27.773Z,3.20
2018-01-29T03:02:57.215Z,3.27
2018-01-29T03:05:26.305Z,3.67
2018-01-29T03:07:55.802Z,3.50
2018-01-29T03:10:25.251Z,3.57
2018-01-29T03:12:54.735Z,3.40
2018-01-29T03:15:24.165Z,2.93
2018-01-29T03:17:53.761Z,2.80
2018-01-29T03:20:23.191Z,2.87
2018-01-29T03:22:52.629Z,2.43
2018-01-29T03:25:22.077Z,2.87
2018-01-29T03:27:51.568Z,3.00
2018-01-29T03:30:21.033Z,2.90
2018-01-29T03:32:50.460Z,2.80
2018-01-29T03:35:19.908Z,2.20
2018-01-29T03:37:49.350Z,2.20
2018-01-29T03:40:18.809Z,2.20
2018-01-29T03:42:48.254Z,2.27
2018-01-29T03:45:17.701Z,2.50
2018-01-29T03:47:47.177Z,2.57
2018-01-29T03:50:16.512Z,1.83
2018-01-29T03:52:45.996Z,1.80
2018-01-29T03:55:15.573Z,1.73
2018-01-29T03:57:45.134Z,1.77
2018-01-29T04:00:14.554Z,2.23
2018-01-29T04:02:43.996Z,1.97
2018-01-29T04:05:13.448Z,2.40
2018-01-29T04:07:42.889Z,2.10
2018-01-29T04:10:12.318Z,2.07
2018-01-29T04:12:41.762Z,2.20
2018-01-29T04:15:11.349Z,1.57
2018-01-29T04:17:40.777Z,1.40
2018-01-29T04:20:09.893Z,1.53
2018-01-29T04:22:39.325Z,1.47
2018-01-29T04:25:08.765Z,1.20
2018-01-29T04:27:38.205Z,1.40
2018-01-29T04:30:07.665Z,1.50
2018-01-29T04:32:37.116Z,1.30
2018-01-29T04:35:06.562Z,2.90
2018-01-29T04:37:36.010Z,2.30
2018-01-29T04:40:05.429Z,1.50
2018-01-29T04:42:34.888Z,1.03
2018-01-29T04:45:04.253Z,1.80
2018-01-29T04:47:33.698Z,1.60
2018-01-29T04:50:03.146Z,1.47
2018-01-29T04:52:32.585Z,1.40
2018-01-29T04:55:02.348Z,1.20
2018-01-29T04:57:31.790Z,1.10
2018-01-29T05:00:01.220Z,1.40
2018-01-29T05:02:30.682Z,1.30
2018-01-29T05:05:00.131Z,1.20
2018-01-29T05:07:29.726Z,1.30
2018-01-29T05:09:59.171Z,1.30
2018-01-29T05:12:28.702Z,1.20
2018-01-29T05:14:58.330Z,1.10
2018-01-29T05:17:27.766Z,1.50
2018-01-29T05:19:57.202Z,1.47
2018-01-29T05:22:26.734Z,1.40
2018-01-29T05:24:56.162Z,1.50
2018-01-29T05:27:25.628Z,1.57
2018-01-29T05:29:55.052Z,1.77
2018-01-29T05:32:24.506Z,1.63
2018-01-29T05:34:54.349Z,1.60
2018-01-29T05:37:29.373Z,2.00
2018-01-29T05:39:58.802Z,1.63
2018-01-29T05:42:28.145Z,1.70
2018-01-29T05:44:57.600Z,1.40
2018-01-29T05:47:27.037Z,1.30
2018-01-29T05:49:56.515Z,1.43
2018-01-29T05:52:25.754Z,1.70
2018-01-29T05:54:54.873Z,1.90
2018-01-29T05:57:24.128Z,4.87
2018-01-29T05:59:53.616Z,2.07
2018-01-29T06:02:23.085Z,2.07
2018-01-29T06:04:52.321Z,1.93
2018-01-29T06:07:21.746Z,1.73
2018-01-29T06:09:51.189Z,2.93
2018-01-29T06:12:20.662Z,1.80
2018-01-29T06:14:50.114Z,1.80
2018-01-29T06:17:19.555Z,2.50
2018-01-29T06:19:49.071Z,1.47
2018-01-29T06:22:18.681Z,1.53
2018-01-29T06:24:48.121Z,2.10
2018-01-29T06:27:17.375Z,2.90
2018-01-29T06:29:46.845Z,2.17
2018-01-29T06:32:16.287Z,1.77
2018-01-29T06:34:45.739Z,1.87
2018-01-29T06:37:15.165Z,1.97
2018-01-29T06:39:44.610Z,2.27
2018-01-29T06:42:14.038Z,1.90
2018-01-29T06:44:43.494Z,2.20
2018-01-29T06:47:12.943Z,2.23
2018-01-29T06:49:42.198Z,2.33
2018-01-29T06:52:11.641Z,2.27
2018-01-29T06:54:41.107Z,2.10
2018-01-29T06:57:10.773Z,2.30
2018-01-29T06:59:40.262Z,2.27
2018-01-29T07:02:09.735Z,2.43
2018-01-29T07:04:39.353Z,2.60
2018-01-29T07:07:08.822Z,2.37
2018-01-29T07:09:38.262Z,2.50
2018-01-29T07:12:07.698Z,2.20
2018-01-29T07:14:37.143Z,2.17
2018-01-29T07:17:06.593Z,1.87
2018-01-29T07:19:36.046Z,2.90
2018-01-29T07:22:05.470Z,3.20
2018-01-29T07:24:34.955Z,2.53
2018-01-29T07:27:04.446Z,2.53
2018-01-29T07:29:33.892Z,1.67
2018-01-29T07:32:03.326Z,2.20
2018-01-29T07:34:33.046Z,1.80
2018-01-29T07:37:02.470Z,1.90
2018-01-29T07:39:31.955Z,1.60
2018-01-29T07:42:01.390Z,1.97
2018-01-29T07:44:30.842Z,1.70
2018-01-29T07:47:00.294Z,1.60
2018-01-29T07:49:29.717Z,1.83
2018-01-29T07:51:59.175Z,1.80
2018-01-29T07:54:28.625Z,1.50
2018-01-29T07:56:58.248Z,1.37
2018-01-29T07:59:27.678Z,1.73
2018-01-29T08:01:57.136Z,1.20
2018-01-29T08:04:26.571Z,1.33
2018-01-29T08:06:56.025Z,1.47
2018-01-29T08:09:25.472Z,1.60
2018-01-29T08:11:54.934Z,1.07
2018-01-29T08:14:24.371Z,1.40
2018-01-29T08:16:53.803Z,1.23
2018-01-29T08:19:23.242Z,1.20
2018-01-29T08:21:52.677Z,1.00
2018-01-29T08:24:22.250Z,1.30
2018-01-29T08:26:51.684Z,1.10
2018-01-29T08:29:21.125Z,1.10
2018-01-29T08:31:50.563Z,1.07
2018-01-29T08:34:20.027Z,1.20
2018-01-29T08:36:49.462Z,1.10
2018-01-29T08:39:18.962Z,1.80
2018-01-29T08:41:48.401Z,1.30
2018-01-29T08:44:17.674Z,1.47
2018-01-29T08:46:46.922Z,1.30
2018-01-29T08:49:16.357Z,1.50
2018-01-29T08:51:45.806Z,1.30
2018-01-29T08:54:15.253Z,1.10
2018-01-29T08:56:44.702Z,1.40
2018-01-29T08:59:14.130Z,1.10
2018-01-29T09:01:43.577Z,0.90
2018-01-29T09:04:13.018Z,1.13
2018-01-29T09:06:42.619Z,1.10
2018-01-29T09:09:12.074Z,1.07
2018-01-29T09:11:41.535Z,0.97
2018-01-29T09:14:10.973Z,0.93
2018-01-29T09:16:40.421Z,1.70
2018-01-29T09:19:09.866Z,1.30
2018-01-29T09:21:39.345Z,1.30
2018-01-29T09:24:08.830Z,1.30
2018-01-29T09:26:38.391Z,0.90
2018-01-29T09:29:07.902Z,1.40
2018-01-29T09:31:37.372Z,2.20
2018-01-29T09:34:06.823Z,1.90
2018-01-29T09:36:36.298Z,1.30
2018-01-29T09:39:05.801Z,1.37
2018-01-29T09:41:35.231Z,1.47
2018-01-29T09:44:04.674Z,0.93
2018-01-29T09:46:34.107Z,1.17
2018-01-29T09:49:03.391Z,0.90
2018-01-29T09:51:32.835Z,1.10
2018-01-29T09:54:02.746Z,1.30
2018-01-29T09:56:32.233Z,0.90
2018-01-29T09:59:01.682Z,1.10
2018-01-29T10:01:31.135Z,1.00
2018-01-29T10:04:00.575Z,1.03
2018-01-29T10:06:30.137Z,1.00
2018-01-29T10:08:59.618Z,0.90
2018-01-29T10:11:29.053Z,1.10
2018-01-29T10:13:58.473Z,0.97
2018-01-29T10:16:28.093Z,1.03
2018-01-29T10:18:57.565Z,1.20
2018-01-29T10:21:26.987Z,1.20
2018-01-29T10:23:56.418Z,0.90
2018-01-29T10:26:25.886Z,1.00
2018-01-29T10:28:54.990Z,0.90
2018-01-29T10:31:24.438Z,1.17
2018-01-29T10:33:53.869Z,1.20
2018-01-29T10:36:23.308Z,1.00
2018-01-29T10:38:52.760Z,1.00
2018-01-29T10:41:22.205Z,1.00
2018-01-29T10:43:51.637Z,1.00
2018-01-29T10:46:21.057Z,1.10
2018-01-29T10:48:50.493Z,1.20
2018-01-29T10:51:21.653Z,1.07
2018-01-29T10:53:51.087Z,1.20
2018-01-29T10:56:20.182Z,1.00
2018-01-29T10:58:49.648Z,0.83
2018-01-29T11:01:22.446Z,1.03
2018-01-29T11:03:51.941Z,1.00
2018-01-29T11:06:21.363Z,1.00
2018-01-29T11:08:50.894Z,1.00
2018-01-29T11:11:20.325Z,0.87
2018-01-29T11:13:49.901Z,1.20
2018-01-29T11:16:19.353Z,1.40
2018-01-29T11:18:48.801Z,1.13
2018-01-29T11:21:18.237Z,0.87
2018-01-29T11:23:47.693Z,1.20
2018-01-29T11:26:17.243Z,1.10
2018-01-29T11:28:46.679Z,0.80
2018-01-29T11:31:16.118Z,1.10
2018-01-29T11:33:45.647Z,1.13
2018-01-29T11:36:15.077Z,0.97
2018-01-29T11:38:44.521Z,1.00
2018-01-29T11:41:13.958Z,0.80
2018-01-29T11:43:43.409Z,0.70
2018-01-29T11:46:12.836Z,1.10
2018-01-29T11:48:42.298Z,0.90
2018-01-29T11:51:11.743Z,1.10
2018-01-29T11:53:41.205Z,1.33
2018-01-29T11:56:10.641Z,1.20
2018-01-29T11:58:40.065Z,0.97
2018-01-29T12:01:09.684Z,0.83
2018-01-29T12:03:39.077Z,1.40
2018-01-29T12:06:08.543Z,0.90
2018-01-29T12:08:38.033Z,0.80
2018-01-29T12:11:07.470Z,0.77
2018-01-29T12:13:36.921Z,0.90
2018-01-29T12:16:06.369Z,1.20
2018-01-29T12:18:35.843Z,1.00
2018-01-29T12:21:05.283Z,0.90
2018-01-29T12:23:34.726Z,1.50
2018-01-29T12:26:04.154Z,0.70
2018-01-29T12:28:33.609Z,0.80
2018-01-29T12:31:03.045Z,0.60
2018-01-29T12:33:32.298Z,0.90
2018-01-29T12:36:01.805Z,0.80
2018-01-29T12:38:31.398Z,0.87
2018-01-29T12:41:00.857Z,0.70
2018-01-29T12:43:30.329Z,0.90
2018-01-29T12:45:59.801Z,0.70
2018-01-29T12:48:29.241Z,0.77
2018-01-29T12:50:58.677Z,0.83
2018-01-29T12:53:27.926Z,0.90
2018-01-29T12:55:57.417Z,0.90
2018-01-29T12:58:27.046Z,0.83
2018-01-29T13:00:56.485Z,0.70
2018-01-29T13:03:25.924Z,0.60
2018-01-29T13:05:55.378Z,0.70
2018-01-29T13:08:24.848Z,0.60
2018-01-29T13:10:54.381Z,0.80
2018-01-29T13:13:23.801Z,0.70
2018-01-29T13:15:53.366Z,0.70
2018-01-29T13:18:22.799Z,1.00
2018-01-29T13:20:52.235Z,1.10
2018-01-29T13:23:21.679Z,1.00
2018-01-29T13:25:51.100Z,0.90
2018-01-29T13:28:20.576Z,1.20
2018-01-29T13:30:49.998Z,0.80
2018-01-29T13:33:19.446Z,0.80
2018-01-29T13:35:48.907Z,0.90
2018-01-29T13:38:18.368Z,1.10
2018-01-29T13:40:47.803Z,0.87
2018-01-29T13:43:17.254Z,0.80
2018-01-29T13:45:46.727Z,0.80
2018-01-29T13:48:16.188Z,0.70
2018-01-29T13:50:45.621Z,0.90
2018-01-29T13:53:15.082Z,0.87
2018-01-29T13:55:44.503Z,1.07
2018-01-29T13:58:13.941Z,1.00
2018-01-29T14:00:43.460Z,0.80
2018-01-29T14:03:12.561Z,0.70
2018-01-29T14:05:42.007Z,0.90
2018-01-29T14:08:11.469Z,0.80
2018-01-29T14:10:40.917Z,0.70
2018-01-29T14:13:10.386Z,0.70
2018-01-29T14:15:39.905Z,0.70
2018-01-29T14:18:09.337Z,2.50
2018-01-29T14:20:38.794Z,0.80
2018-01-29T14:23:08.228Z,0.70
2018-01-29T14:25:37.649Z,0.70
2018-01-29T14:28:07.098Z,0.80
2018-01-29T14:30:36.532Z,0.73
2018-01-29T14:33:05.984Z,0.80
2018-01-29T14:35:35.547Z,0.60
2018-01-29T14:38:04.998Z,0.73
2018-01-29T14:40:34.421Z,0.67
2018-01-29T14:43:03.857Z,0.90
2018-01-29T14:45:33.350Z,0.90
2018-01-29T14:48:03.676Z,0.90
2018-01-29T14:50:33.186Z,1.03
2018-01-29T14:53:02.630Z,0.90
2018-01-29T14:55:32.061Z,0.50
2018-01-29T14:58:01.509Z,0.70
2018-01-29T15:00:31.041Z,0.70
2018-01-29T15:03:00.487Z,0.83
2018-01-29T15:05:30.002Z,0.80
2018-01-29T15:07:59.460Z,0.70
2018-01-29T15:10:28.910Z,0.60
2018-01-29T15:12:58.336Z,0.60
2018-01-29T15:15:27.963Z,0.70
2018-01-29T15:17:57.397Z,1.00
2018-01-29T15:20:26.858Z,0.60
2018-01-29T15:22:56.288Z,0.80
2018-01-29T15:25:25.749Z,0.83
2018-01-29T15:27:55.198Z,0.80
2018-01-29T15:30:24.673Z,0.60
2018-01-29T15:32:54.105Z,0.80
2018-01-29T15:35:23.589Z,0.70
2018-01-29T15:37:53.204Z,0.70
2018-01-29T15:40:22.626Z,0.73
2018-01-29T15:42:52.233Z,0.90
2018-01-29T15:45:21.719Z,0.70
2018-01-29T15:47:51.142Z,0.70
2018-01-29T15:50:20.638Z,0.77
2018-01-29T15:52:50.245Z,0.90
2018-01-29T15:55:19.710Z,0.90
2018-01-29T15:57:49.138Z,1.03
2018-01-29T16:00:18.601Z,0.80
2018-01-29T16:02:48.050Z,0.80
2018-01-29T16:05:17.482Z,0.90
2018-01-29T16:07:46.978Z,1.17
2018-01-29T16:10:16.578Z,1.07
2018-01-29T16:12:46.002Z,1.13
2018-01-29T16:15:15.525Z,2.00
2018-01-29T16:17:44.949Z,1.20
2018-01-29T16:20:14.519Z,1.13
2018-01-29T16:22:43.941Z,0.97
2018-01-29T16:25:13.443Z,1.20
2018-01-29T16:27:42.897Z,0.90
2018-01-29T16:30:12.357Z,0.80
2018-01-29T16:32:41.824Z,0.90
2018-01-29T16:35:11.265Z,0.70
2018-01-29T16:37:40.709Z,1.10
2018-01-29T16:40:10.356Z,0.93
2018-01-29T16:42:39.794Z,1.07
2018-01-29T16:45:09.354Z,0.70
2018-01-29T16:47:38.810Z,1.20
2018-01-29T16:50:08.273Z,1.03
2018-01-29T16:52:37.778Z,0.97
2018-01-29T16:55:07.213Z,0.90
2018-01-29T16:57:36.702Z,1.33
2018-01-29T17:00:06.141Z,1.33
2018-01-29T17:02:35.633Z,0.90
2018-01-29T17:05:05.075Z,1.30
2018-01-29T17:07:34.730Z,1.13
2018-01-29T17:10:04.214Z,0.70
2018-01-29T17:12:33.660Z,1.23
2018-01-29T17:15:03.132Z,1.00
2018-01-29T17:17:32.594Z,1.20
2018-01-29T17:20:02.242Z,1.03
2018-01-29T17:22:31.723Z,1.00
2018-01-29T17:25:01.174Z,0.90
2018-01-29T17:27:30.610Z,1.03
2018-01-29T17:30:00.092Z,0.90
2018-01-29T17:32:29.538Z,2.60
2018-01-29T17:34:59.001Z,2.80
2018-01-29T17:37:28.461Z,2.17
2018-01-29T17:39:57.905Z,1.30
2018-01-29T17:42:27.321Z,1.30
2018-01-29T17:44:57.018Z,1.37
2018-01-29T17:47:26.441Z,1.43
2018-01-29T17:49:55.889Z,1.33
2018-01-29T17:52:25.341Z,0.93
2018-01-29T17:54:54.818Z,1.37
2018-01-29T17:57:24.278Z,1.37
2018-01-29T17:59:53.738Z,0.83
2018-01-29T18:02:23.239Z,1.20
2018-01-29T18:04:52.695Z,1.10
2018-01-29T18:07:22.306Z,1.10
2018-01-29T18:09:51.757Z,1.10
2018-01-29T18:12:21.259Z,1.00
2018-01-29T18:14:50.708Z,0.90
2018-01-29T18:17:20.208Z,1.00
2018-01-29T18:19:49.655Z,0.90
2018-01-29T18:22:19.147Z,1.00
2018-01-29T18:24:48.611Z,1.70
2018-01-29T18:27:18.086Z,2.00
2018-01-29T18:29:47.540Z,2.00
2018-01-29T18:32:17.043Z,1.23
2018-01-29T18:34:46.635Z,1.00
2018-01-29T18:37:16.110Z,1.00
2018-01-29T18:39:45.576Z,1.30
2018-01-29T18:42:15.060Z,1.07
2018-01-29T18:44:44.543Z,1.10
2018-01-29T18:47:14.014Z,0.90
2018-01-29T18:49:43.498Z,0.83
2018-01-29T18:52:12.948Z,0.80
2018-01-29T18:54:42.437Z,0.80
2018-01-29T18:57:11.898Z,0.90
2018-01-29T18:59:41.400Z,0.80
2018-01-29T19:02:10.898Z,0.70
2018-01-29T19:04:40.336Z,0.60
2018-01-29T19:07:09.813Z,0.80
2018-01-29T19:09:39.255Z,0.80
2018-01-29T19:12:08.815Z,0.63
2018-01-29T19:14:38.258Z,1.00
2018-01-29T19:17:07.766Z,1.10
2018-01-29T19:19:37.216Z,0.73
2018-01-29T19:22:06.682Z,0.70
2018-01-29T19:24:36.185Z,1.30
2018-01-29T19:27:05.649Z,0.73
2018-01-29T19:29:35.090Z,1.00
2018-01-29T19:32:04.554Z,0.70
2018-01-29T19:34:34.008Z,0.60
2018-01-29T19:37:03.565Z,0.67
2018-01-29T19:39:33.008Z,0.70
2018-01-29T19:42:02.487Z,0.60
2018-01-29T19:44:31.932Z,0.70
2018-01-29T19:47:01.611Z,0.70
2018-01-29T19:49:31.057Z,0.70
2018-01-29T19:52:00.502Z,0.50
2018-01-29T19:54:29.995Z,0.80
2018-01-29T19:56:59.446Z,0.70
2018-01-29T19:59:28.918Z,0.60
2018-01-29T20:01:58.437Z,0.70
2018-01-29T20:04:27.911Z,0.60
2018-01-29T20:06:57.351Z,0.60
2018-01-29T20:09:26.857Z,0.60
2018-01-29T20:11:56.303Z,0.50
2018-01-29T20:14:25.851Z,0.73
2018-01-29T20:16:55.354Z,0.50
2018-01-29T20:19:24.821Z,0.50
2018-01-29T20:21:54.273Z,0.40
2018-01-29T20:24:23.699Z,0.70
2018-01-29T20:26:53.156Z,0.50
2018-01-29T20:29:22.616Z,0.53
2018-01-29T20:31:52.091Z,0.50
2018-01-29T20:34:21.590Z,0.60
2018-01-29T20:36:51.045Z,0.50
2018-01-29T20:39:20.142Z,0.50
2018-01-29T20:41:49.609Z,0.70
2018-01-29T20:44:18.732Z,0.50
2018-01-29T20:46:48.225Z,0.50
2018-01-29T20:49:17.658Z,0.60
2018-01-29T20:51:47.141Z,0.57
2018-01-29T20:54:16.605Z,0.60
2018-01-29T20:56:46.077Z,0.70
2018-01-29T20:59:15.507Z,0.60
2018-01-29T21:01:44.969Z,0.67
2018-01-29T21:04:14.496Z,0.70
2018-01-29T21:06:44.015Z,0.50
2018-01-29T21:09:13.630Z,0.60
2018-01-29T21:11:43.095Z,0.70
2018-01-29T21:14:12.561Z,0.70
2018-01-29T21:16:42.046Z,0.77
2018-01-29T21:19:11.486Z,0.77
2018-01-29T21:21:40.959Z,0.50
2018-01-29T21:24:10.419Z,0.90
2018-01-29T21:26:39.885Z,0.50
2018-01-29T21:29:09.328Z,0.60
2018-01-29T21:31:38.789Z,0.73
2018-01-29T21:34:08.238Z,0.50
2018-01-29T21:36:37.696Z,0.50
2018-01-29T21:39:07.145Z,0.60
2018-01-29T21:41:36.580Z,0.60
2018-01-29T21:44:06.047Z,0.43
2018-01-29T21:46:35.490Z,0.50
2018-01-29T21:49:04.938Z,0.80
2018-01-29T21:51:34.394Z,0.60
2018-01-29T21:54:03.878Z,0.60
2018-01-29T21:56:33.323Z,0.50
2018-01-29T21:59:02.792Z,0.57
2018-01-29T22:01:32.249Z,0.60
2018-01-29T22:04:01.717Z,0.60
2018-01-29T22:06:31.153Z,0.67
2018-01-29T22:09:00.613Z,0.50
2018-01-29T22:11:30.137Z,0.80
2018-01-29T22:13:59.292Z,0.70
2018-01-29T22:16:28.765Z,0.60
2018-01-29T22:18:58.235Z,0.60
2018-01-29T22:21:27.682Z,0.60
2018-01-29T22:23:57.135Z,0.60
2018-01-29T22:26:26.414Z,0.60
2018-01-29T22:28:55.867Z,0.50
2018-01-29T22:31:25.350Z,0.80
2018-01-29T22:33:54.790Z,0.63
2018-01-29T22:36:24.226Z,0.60
2018-01-29T22:38:53.682Z,0.60
2018-01-29T22:41:23.154Z,0.70
2018-01-29T22:43:52.607Z,0.60
2018-01-29T22:46:22.053Z,0.70
2018-01-29T22:48:51.245Z,0.80
2018-01-29T22:51:20.693Z,0.60
2018-01-29T22:53:50.175Z,0.60
2018-01-29T22:56:19.614Z,0.60
2018-01-29T22:58:49.098Z,0.67
2018-01-29T23:01:18.543Z,0.53
2018-01-29T23:03:47.993Z,0.60
2018-01-29T23:06:17.535Z,0.80
2018-01-29T23:08:46.993Z,0.60
2018-01-29T23:11:16.433Z,0.80
2018-01-29T23:13:45.880Z,0.70
2018-01-29T23:16:15.325Z,0.80
2018-01-29T23:18:44.949Z,0.77
2018-01-29T23:21:13.407Z,0.60
2018-01-29T23:23:42.850Z,0.80
2018-01-29T23:26:12.300Z,0.83
2018-01-29T23:28:41.742Z,0.70
2018-01-29T23:31:11.197Z,0.80
2018-01-29T23:33:40.637Z,0.70
2018-01-29T23:36:10.101Z,0.80
2018-01-29T23:38:39.534Z,0.60
2018-01-29T23:41:08.961Z,0.60
2018-01-29T23:43:38.411Z,0.50
2018-01-29T23:46:07.867Z,0.60
2018-01-29T23:48:37.317Z,0.60
2018-01-29T23:51:06.761Z,0.60
2018-01-29T23:53:36.237Z,0.50
2018-01-29T23:56:05.669Z,0.60
2018-01-29T23:58:35.101Z,0.60
